createdAt,value
2018-07-04T00:00:31.157Z,20.37
2018-07-04T00:01:31.124Z,20.38
2018-07-04T00:02:31.110Z,20.46
2018-07-04T00:03:31.101Z,20.41
2018-07-04T00:04:31.091Z,20.48
2018-07-04T00:05:31.110Z,20.50
2018-07-04T00:06:31.248Z,20.46
2018-07-04T00:07:31.064Z,20.48
2018-07-04T00:08:31.057Z,20.50
2018-07-04T00:09:31.045Z,20.57
2018-07-04T00:10:31.054Z,20.57
2018-07-04T00:11:31.017Z,20.60
2018-07-04T00:12:31.009Z,20.57
2018-07-04T00:13:30.996Z,20.58
2018-07-04T00:14:30.981Z,20.44
2018-07-04T00:15:30.991Z,20.56
2018-07-04T00:16:30.968Z,20.64
2018-07-04T00:17:30.950Z,20.57
2018-07-04T00:18:30.949Z,20.51
2018-07-04T00:19:30.929Z,20.68
2018-07-04T00:20:30.900Z,20.57
2018-07-04T00:21:30.914Z,20.64
2018-07-04T00:22:30.985Z,20.58
2018-07-04T00:23:30.886Z,20.63
2018-07-04T00:24:30.878Z,20.57
2018-07-04T00:25:30.911Z,20.58
2018-07-04T00:26:30.858Z,20.54
2018-07-04T00:27:30.846Z,20.64
2018-07-04T00:28:30.840Z,20.66
2018-07-04T00:29:30.822Z,20.61
2018-07-04T00:30:30.833Z,20.60
2018-07-04T00:31:30.809Z,20.51
2018-07-04T00:32:30.793Z,20.53
2018-07-04T00:33:30.790Z,20.57
2018-07-04T00:34:30.768Z,20.60
2018-07-04T00:35:30.792Z,20.58
2018-07-04T00:36:30.756Z,20.60
2018-07-04T00:37:30.740Z,20.53
2018-07-04T00:38:30.823Z,20.56
2018-07-04T00:39:30.718Z,20.50
2018-07-04T00:40:30.727Z,20.54
2018-07-04T00:41:30.703Z,20.54
2018-07-04T00:42:30.690Z,20.44
2018-07-04T00:43:30.676Z,20.48
2018-07-04T00:44:30.664Z,20.41
2018-07-04T00:45:30.673Z,20.46
2018-07-04T00:46:30.692Z,20.50
2018-07-04T00:47:30.640Z,20.37
2018-07-04T00:48:30.620Z,20.42
2018-07-04T00:49:30.607Z,20.34
2018-07-04T00:50:30.604Z,20.38
2018-07-04T00:51:30.606Z,20.35
2018-07-04T00:52:30.580Z,20.33
2018-07-04T00:53:30.565Z,20.33
2018-07-04T00:54:30.553Z,20.23
2018-07-04T00:55:30.549Z,20.25
2018-07-04T00:56:30.556Z,20.22
2018-07-04T00:57:30.479Z,20.19
2018-07-04T00:58:30.528Z,20.12
2018-07-04T00:59:30.510Z,20.19
2018-07-04T01:00:30.492Z,20.20
2018-07-04T01:01:30.507Z,20.16
2018-07-04T01:02:30.468Z,20.17
2018-07-04T01:03:30.462Z,20.17
2018-07-04T01:04:30.445Z,20.17
2018-07-04T01:05:30.438Z,20.12
2018-07-04T01:06:30.416Z,20.17
2018-07-04T01:07:30.459Z,20.17
2018-07-04T01:08:30.416Z,20.15
2018-07-04T01:09:30.399Z,20.25
2018-07-04T01:10:30.388Z,20.15
2018-07-04T01:11:30.390Z,20.13
2018-07-04T01:12:30.359Z,20.16
2018-07-04T01:13:30.405Z,20.19
2018-07-04T01:14:30.349Z,20.20
2018-07-04T01:15:30.456Z,20.23
2018-07-04T01:16:30.346Z,20.23
2018-07-04T01:17:30.310Z,20.12
2018-07-04T01:18:30.313Z,20.19
2018-07-04T01:19:30.240Z,20.17
2018-07-04T01:20:30.278Z,20.20
2018-07-04T01:21:30.282Z,20.15
2018-07-04T01:22:30.255Z,20.12
2018-07-04T01:23:30.255Z,20.12
2018-07-04T01:24:30.229Z,20.15
2018-07-04T01:25:30.226Z,20.25
2018-07-04T01:26:30.239Z,20.20
2018-07-04T01:27:30.210Z,20.17
2018-07-04T01:28:30.191Z,20.20
2018-07-04T01:29:30.184Z,20.26
2018-07-04T01:30:30.171Z,20.17
2018-07-04T01:31:30.323Z,19.97
2018-07-04T01:32:30.145Z,20.01
2018-07-04T01:33:30.133Z,19.98
2018-07-04T01:34:30.161Z,19.97
2018-07-04T01:35:30.112Z,20.01
2018-07-04T01:36:30.135Z,20.01
2018-07-04T01:37:30.107Z,20.00
2018-07-04T01:38:30.089Z,20.02
2018-07-04T01:39:30.080Z,19.85
2018-07-04T01:40:30.060Z,19.89
2018-07-04T01:41:30.075Z,19.95
2018-07-04T01:42:30.039Z,19.87
2018-07-04T01:43:30.032Z,19.97
2018-07-04T01:44:30.022Z,19.92
2018-07-04T01:45:30.008Z,19.92
2018-07-04T01:46:30.016Z,19.86
2018-07-04T01:47:29.981Z,19.89
2018-07-04T01:48:29.973Z,19.94
2018-07-04T01:49:29.977Z,19.92
2018-07-04T01:50:29.981Z,19.90
2018-07-04T01:51:29.967Z,19.87
2018-07-04T01:52:29.892Z,19.92
2018-07-04T01:53:29.924Z,19.89
2018-07-04T01:54:29.909Z,19.90
2018-07-04T01:55:29.858Z,19.89
2018-07-04T01:56:29.922Z,19.95
2018-07-04T01:57:29.885Z,19.92
2018-07-04T01:58:29.885Z,19.89
2018-07-04T01:59:29.858Z,19.92
2018-07-04T02:00:29.842Z,19.87
2018-07-04T02:01:29.861Z,19.90
2018-07-04T02:02:29.828Z,19.98
2018-07-04T02:03:29.820Z,19.95
2018-07-04T02:04:29.809Z,19.89
2018-07-04T02:05:29.801Z,19.87
2018-07-04T02:06:29.812Z,19.92
2018-07-04T02:07:29.785Z,19.89
2018-07-04T02:08:29.763Z,19.94
2018-07-04T02:09:29.755Z,19.90
2018-07-04T02:10:29.745Z,19.90
2018-07-04T02:11:29.758Z,19.94
2018-07-04T02:12:29.741Z,19.94
2018-07-04T02:13:29.712Z,19.89
2018-07-04T02:14:29.704Z,19.97
2018-07-04T02:15:29.702Z,19.92
2018-07-04T02:16:29.636Z,19.90
2018-07-04T02:17:38.495Z,19.94
2018-07-04T02:18:29.613Z,19.97
2018-07-04T02:19:29.652Z,19.90
2018-07-04T02:20:29.638Z,19.97
2018-07-04T02:21:29.625Z,19.97
2018-07-04T02:22:29.638Z,19.95
2018-07-04T02:23:29.595Z,19.94
2018-07-04T02:24:29.586Z,19.87
2018-07-04T02:25:29.563Z,19.92
2018-07-04T02:26:29.525Z,19.87
2018-07-04T02:27:29.576Z,19.92
2018-07-04T02:28:29.544Z,19.82
2018-07-04T02:29:29.538Z,19.83
2018-07-04T02:30:29.519Z,19.80
2018-07-04T02:31:29.512Z,19.80
2018-07-04T02:32:29.535Z,19.79
2018-07-04T02:33:29.486Z,19.83
2018-07-04T02:34:29.490Z,19.80
2018-07-04T02:35:29.431Z,19.79
2018-07-04T02:36:29.456Z,19.76
2018-07-04T02:37:29.494Z,19.79
2018-07-04T02:38:29.452Z,19.72
2018-07-04T02:39:29.428Z,19.82
2018-07-04T02:40:29.423Z,19.75
2018-07-04T02:41:29.403Z,19.70
2018-07-04T02:42:29.416Z,19.79
2018-07-04T02:43:29.378Z,19.70
2018-07-04T02:44:29.366Z,19.70
2018-07-04T02:45:29.363Z,19.67
2018-07-04T02:46:29.345Z,19.64
2018-07-04T02:47:29.365Z,19.67
2018-07-04T02:48:29.321Z,19.68
2018-07-04T02:49:29.316Z,19.68
2018-07-04T02:50:29.305Z,19.70
2018-07-04T02:51:29.334Z,19.68
2018-07-04T02:52:29.306Z,19.62
2018-07-04T02:53:29.273Z,19.65
2018-07-04T02:54:29.272Z,19.65
2018-07-04T02:55:29.247Z,19.61
2018-07-04T02:56:29.236Z,19.57
2018-07-04T02:57:29.246Z,19.57
2018-07-04T02:58:29.217Z,19.55
2018-07-04T02:59:29.204Z,19.60
2018-07-04T03:00:29.199Z,19.52
2018-07-04T03:01:29.183Z,19.55
2018-07-04T03:02:29.208Z,19.58
2018-07-04T03:03:29.163Z,19.42
2018-07-04T03:04:29.150Z,19.50
2018-07-04T03:05:29.140Z,19.45
2018-07-04T03:06:29.132Z,19.46
2018-07-04T03:07:29.311Z,19.46
2018-07-04T03:08:29.065Z,19.50
2018-07-04T03:09:29.100Z,19.42
2018-07-04T03:10:29.095Z,19.46
2018-07-04T03:11:29.071Z,19.55
2018-07-04T03:12:29.090Z,19.45
2018-07-04T03:13:29.053Z,19.49
2018-07-04T03:14:29.053Z,19.46
2018-07-04T03:15:29.037Z,19.50
2018-07-04T03:16:29.024Z,19.43
2018-07-04T03:17:29.038Z,19.49
2018-07-04T03:18:28.996Z,19.46
2018-07-04T03:19:28.987Z,19.50
2018-07-04T03:20:28.974Z,19.42
2018-07-04T03:21:28.928Z,19.40
2018-07-04T03:22:28.979Z,19.55
2018-07-04T03:23:28.941Z,19.61
2018-07-04T03:24:28.896Z,19.57
2018-07-04T03:25:28.918Z,19.60
2018-07-04T03:26:28.913Z,19.55
2018-07-04T03:27:28.931Z,19.52
2018-07-04T03:28:28.887Z,19.57
2018-07-04T03:29:28.882Z,19.58
2018-07-04T03:30:28.867Z,19.53
2018-07-04T03:31:28.821Z,19.45
2018-07-04T03:32:28.873Z,19.50
2018-07-04T03:33:28.787Z,19.52
2018-07-04T03:34:28.824Z,19.50
2018-07-04T03:35:28.817Z,19.46
2018-07-04T03:36:28.813Z,19.49
2018-07-04T03:37:28.814Z,19.42
2018-07-04T03:38:28.776Z,19.38
2018-07-04T03:39:28.771Z,19.40
2018-07-04T03:40:28.764Z,19.40
2018-07-04T03:41:28.745Z,19.34
2018-07-04T03:42:28.754Z,19.34
2018-07-04T03:43:28.723Z,19.35
2018-07-04T03:44:28.713Z,19.32
2018-07-04T03:45:28.664Z,19.39
2018-07-04T03:46:28.689Z,19.38
2018-07-04T03:47:28.786Z,19.32
2018-07-04T03:48:28.712Z,19.34
2018-07-04T03:49:28.659Z,19.25
2018-07-04T03:50:28.637Z,19.21
2018-07-04T03:51:28.641Z,19.25
2018-07-04T03:52:28.649Z,19.30
2018-07-04T03:53:28.618Z,19.23
2018-07-04T03:54:28.606Z,19.27
2018-07-04T03:55:28.550Z,19.24
2018-07-04T03:56:28.581Z,19.25
2018-07-04T03:57:28.596Z,19.25
2018-07-04T03:58:28.563Z,19.28
2018-07-04T03:59:28.553Z,19.34
2018-07-04T04:00:28.540Z,19.35
2018-07-04T04:01:28.531Z,19.30
2018-07-04T04:02:28.547Z,19.34
2018-07-04T04:03:28.472Z,19.38
2018-07-04T04:04:28.497Z,19.39
2018-07-04T04:05:28.440Z,19.42
2018-07-04T04:06:28.483Z,19.32
2018-07-04T04:07:28.489Z,19.39
2018-07-04T04:08:28.454Z,19.50
2018-07-04T04:09:28.446Z,19.46
2018-07-04T04:10:28.399Z,19.52
2018-07-04T04:11:28.511Z,19.57
2018-07-04T04:12:28.452Z,19.61
2018-07-04T04:13:28.402Z,19.53
2018-07-04T04:14:28.396Z,19.60
2018-07-04T04:15:28.384Z,19.55
2018-07-04T04:16:28.374Z,19.67
2018-07-04T04:17:28.378Z,19.67
2018-07-04T04:18:28.347Z,19.79
2018-07-04T04:19:28.334Z,19.85
2018-07-04T04:20:28.338Z,19.90
2018-07-04T04:21:28.317Z,19.89
2018-07-04T04:22:28.306Z,19.94
2018-07-04T04:23:28.312Z,19.98
2018-07-04T04:24:28.285Z,20.01
2018-07-04T04:25:28.274Z,20.05
2018-07-04T04:26:28.264Z,19.98
2018-07-04T04:27:28.299Z,20.17
2018-07-04T04:28:28.269Z,20.17
2018-07-04T04:29:28.234Z,20.15
2018-07-04T04:30:28.198Z,20.23
2018-07-04T04:31:28.209Z,20.27
2018-07-04T04:32:28.211Z,20.31
2018-07-04T04:33:28.211Z,20.33
2018-07-04T04:34:28.176Z,20.42
2018-07-04T04:35:28.164Z,20.41
2018-07-04T04:36:28.155Z,20.51
2018-07-04T04:37:28.147Z,20.53
2018-07-04T04:38:28.151Z,20.51
2018-07-04T04:39:28.123Z,20.51
2018-07-04T04:40:28.119Z,20.57
2018-07-04T04:41:28.097Z,20.54
2018-07-04T04:42:28.122Z,20.64
2018-07-04T04:43:28.203Z,20.61
2018-07-04T04:44:28.064Z,20.66
2018-07-04T04:45:28.054Z,20.66
2018-07-04T04:46:28.045Z,20.57
2018-07-04T04:47:28.037Z,20.69
2018-07-04T04:48:28.035Z,20.64
2018-07-04T04:49:28.044Z,20.64
2018-07-04T04:50:28.012Z,20.63
2018-07-04T04:51:28.003Z,20.60
2018-07-04T04:52:27.989Z,20.54
2018-07-04T04:53:27.972Z,20.42
2018-07-04T04:54:27.985Z,20.44
2018-07-04T04:55:27.962Z,20.58
2018-07-04T04:56:27.938Z,20.78
2018-07-04T04:57:27.935Z,21.03
2018-07-04T04:58:27.917Z,21.19
2018-07-04T04:59:27.931Z,21.33
2018-07-04T05:00:27.851Z,21.34
2018-07-04T05:01:27.884Z,21.52
2018-07-04T05:02:27.876Z,21.83
2018-07-04T05:03:27.865Z,21.81
2018-07-04T05:04:27.876Z,21.81
2018-07-04T05:05:27.847Z,21.91
2018-07-04T05:06:27.829Z,22.04
2018-07-04T05:07:27.788Z,22.12
2018-07-04T05:08:27.814Z,22.08
2018-07-04T05:09:27.823Z,21.99
2018-07-04T05:10:27.790Z,22.05
2018-07-04T05:11:27.777Z,21.85
2018-07-04T05:12:27.775Z,21.86
2018-07-04T05:13:27.758Z,21.89
2018-07-04T05:14:27.776Z,21.83
2018-07-04T05:15:27.735Z,22.04
2018-07-04T05:16:27.753Z,22.08
2018-07-04T05:17:27.713Z,22.20
2018-07-04T05:18:27.704Z,22.36
2018-07-04T05:19:27.670Z,22.31
2018-07-04T05:20:27.681Z,22.29
2018-07-04T05:21:27.671Z,22.42
2018-07-04T05:22:27.663Z,22.51
2018-07-04T05:23:27.673Z,22.51
2018-07-04T05:24:27.678Z,22.56
2018-07-04T05:25:27.626Z,22.59
2018-07-04T05:26:27.617Z,22.72
2018-07-04T05:27:27.608Z,22.72
2018-07-04T05:28:27.606Z,22.76
2018-07-04T05:29:27.614Z,22.66
2018-07-04T05:30:27.577Z,22.69
2018-07-04T05:31:27.567Z,22.70
2018-07-04T05:32:27.554Z,22.84
2018-07-04T05:33:27.547Z,22.81
2018-07-04T05:34:27.554Z,22.79
2018-07-04T05:35:27.521Z,22.91
2018-07-04T05:36:27.512Z,22.94
2018-07-04T05:37:27.514Z,22.97
2018-07-04T05:38:27.488Z,23.01
2018-07-04T05:39:27.652Z,23.15
2018-07-04T05:40:27.465Z,23.19
2018-07-04T05:41:27.458Z,23.18
2018-07-04T05:42:27.951Z,23.29
2018-07-04T05:43:27.554Z,23.35
2018-07-04T05:44:27.621Z,23.44
2018-07-04T05:45:27.414Z,23.56
2018-07-04T05:46:27.413Z,23.74
2018-07-04T05:47:27.513Z,23.82
2018-07-04T05:48:27.595Z,23.75
2018-07-04T05:49:27.610Z,23.89
2018-07-04T05:50:27.403Z,23.84
2018-07-04T05:51:27.365Z,23.99
2018-07-04T05:52:27.341Z,23.99
2018-07-04T05:53:27.333Z,23.93
2018-07-04T05:54:27.327Z,23.96
2018-07-04T05:55:27.333Z,23.90
2018-07-04T05:56:27.301Z,23.74
2018-07-04T05:57:27.284Z,23.71
2018-07-04T05:58:27.281Z,23.67
2018-07-04T05:59:27.275Z,23.71
2018-07-04T06:00:27.278Z,23.67
2018-07-04T06:01:27.410Z,23.64
2018-07-04T06:02:27.246Z,23.84
2018-07-04T06:03:27.184Z,23.87
2018-07-04T06:04:27.225Z,23.92
2018-07-04T06:05:27.226Z,24.12
2018-07-04T06:06:27.226Z,24.34
2018-07-04T06:07:27.198Z,24.39
2018-07-04T06:08:27.168Z,24.48
2018-07-04T06:09:27.159Z,24.48
2018-07-04T06:10:27.173Z,24.53
2018-07-04T06:11:27.135Z,24.48
2018-07-04T06:12:27.127Z,24.67
2018-07-04T06:13:27.117Z,24.61
2018-07-04T06:14:27.114Z,24.74
2018-07-04T06:15:27.115Z,24.56
2018-07-04T06:16:27.085Z,24.70
2018-07-04T06:17:27.073Z,24.70
2018-07-04T06:18:27.065Z,24.59
2018-07-04T06:19:27.065Z,24.59
2018-07-04T06:20:27.067Z,24.55
2018-07-04T06:21:27.028Z,24.51
2018-07-04T06:22:27.027Z,24.63
2018-07-04T06:23:27.009Z,24.74
2018-07-04T06:24:26.998Z,24.70
2018-07-04T06:25:27.025Z,24.84
2018-07-04T06:26:26.973Z,24.70
2018-07-04T06:27:26.981Z,24.68
2018-07-04T06:28:26.910Z,24.79
2018-07-04T06:29:26.946Z,24.84
2018-07-04T06:30:26.954Z,24.89
2018-07-04T06:31:26.925Z,24.75
2018-07-04T06:32:26.935Z,24.74
2018-07-04T06:33:26.860Z,24.84
2018-07-04T06:34:26.890Z,24.75
2018-07-04T06:35:26.914Z,24.75
2018-07-04T06:36:26.878Z,24.80
2018-07-04T06:37:26.859Z,24.86
2018-07-04T06:38:26.869Z,24.92
2018-07-04T06:39:26.844Z,24.99
2018-07-04T06:40:26.817Z,25.14
2018-07-04T06:41:26.818Z,25.30
2018-07-04T06:42:26.809Z,25.38
2018-07-04T06:43:26.760Z,25.36
2018-07-04T06:44:26.787Z,25.51
2018-07-04T06:45:26.828Z,25.71
2018-07-04T06:46:26.739Z,25.91
2018-07-04T06:47:26.713Z,25.93
2018-07-04T06:48:26.744Z,26.08
2018-07-04T06:49:26.758Z,26.19
2018-07-04T06:50:26.742Z,26.31
2018-07-04T06:51:26.715Z,26.50
2018-07-04T06:52:26.704Z,26.69
2018-07-04T06:53:26.691Z,26.94
2018-07-04T06:54:26.754Z,27.02
2018-07-04T06:55:26.696Z,27.12
2018-07-04T06:56:26.659Z,28.09
2018-07-04T06:57:26.653Z,28.32
2018-07-04T06:58:26.646Z,28.20
2018-07-04T06:59:26.717Z,28.62
2018-07-04T07:00:26.601Z,29.60
2018-07-04T07:01:26.616Z,30.21
2018-07-04T07:02:26.600Z,30.63
2018-07-04T07:03:26.592Z,31.20
2018-07-04T07:04:26.582Z,31.71
2018-07-04T07:05:26.569Z,31.95
2018-07-04T07:06:26.593Z,31.84
2018-07-04T07:07:26.563Z,32.34
2018-07-04T07:08:26.560Z,32.59
2018-07-04T07:09:26.529Z,32.51
2018-07-04T07:10:26.557Z,32.29
2018-07-04T07:11:26.529Z,32.39
2018-07-04T07:12:26.498Z,32.13
2018-07-04T07:13:26.485Z,32.16
2018-07-04T07:14:26.536Z,32.41
2018-07-04T07:15:26.482Z,32.73
2018-07-04T07:16:26.479Z,32.63
2018-07-04T07:17:26.444Z,32.62
2018-07-04T07:18:26.394Z,32.36
2018-07-04T07:19:26.425Z,32.14
2018-07-04T07:20:26.416Z,32.39
2018-07-04T07:21:26.428Z,32.58
2018-07-04T07:22:26.395Z,32.62
2018-07-04T07:23:26.386Z,32.76
2018-07-04T07:24:26.382Z,32.47
2018-07-04T07:25:26.323Z,32.77
2018-07-04T07:26:26.565Z,33.05
2018-07-04T07:27:26.412Z,33.09
2018-07-04T07:28:26.364Z,33.09
2018-07-04T07:29:26.351Z,33.24
2018-07-04T07:30:26.323Z,33.45
2018-07-04T07:31:26.269Z,33.34
2018-07-04T07:32:26.313Z,33.34
2018-07-04T07:33:26.297Z,33.52
2018-07-04T07:34:26.321Z,33.70
2018-07-04T07:35:26.267Z,34.01
2018-07-04T07:36:26.218Z,34.27
2018-07-04T07:37:26.274Z,34.28
2018-07-04T07:38:26.235Z,34.28
2018-07-04T07:39:26.280Z,34.30
2018-07-04T07:40:26.217Z,34.14
2018-07-04T07:41:26.204Z,33.77
2018-07-04T07:42:26.215Z,33.87
2018-07-04T07:43:26.188Z,34.14
2018-07-04T07:44:26.183Z,33.59
2018-07-04T07:45:26.120Z,33.02
2018-07-04T07:46:26.160Z,32.25
2018-07-04T07:47:26.172Z,32.34
2018-07-04T07:48:26.133Z,32.96
2018-07-04T07:49:26.126Z,33.55
2018-07-04T07:50:26.125Z,33.44
2018-07-04T07:51:26.108Z,33.29
2018-07-04T07:52:26.199Z,33.20
2018-07-04T07:53:26.085Z,33.22
2018-07-04T07:54:26.152Z,33.22
2018-07-04T07:55:26.063Z,33.17
2018-07-04T07:56:26.056Z,33.22
2018-07-04T07:57:26.068Z,33.18
2018-07-04T07:58:26.051Z,33.20
2018-07-04T07:59:26.025Z,33.15
2018-07-04T08:00:26.014Z,33.40
2018-07-04T08:01:26.004Z,33.55
2018-07-04T08:02:26.015Z,33.49
2018-07-04T08:03:25.986Z,33.35
2018-07-04T08:04:25.973Z,33.75
2018-07-04T08:05:25.967Z,33.60
2018-07-04T08:06:25.967Z,33.15
2018-07-04T08:07:25.931Z,32.98
2018-07-04T08:08:25.900Z,32.76
2018-07-04T08:09:25.922Z,32.78
2018-07-04T08:10:25.916Z,33.12
2018-07-04T08:11:25.951Z,33.05
2018-07-04T08:12:25.920Z,32.85
2018-07-04T08:13:25.889Z,32.44
2018-07-04T08:14:25.878Z,32.21
2018-07-04T08:15:25.951Z,31.76
2018-07-04T08:16:25.810Z,31.82
2018-07-04T08:17:25.880Z,31.72
2018-07-04T08:18:25.834Z,31.95
2018-07-04T08:19:25.784Z,31.95
2018-07-04T08:20:25.820Z,31.92
2018-07-04T08:21:25.825Z,32.12
2018-07-04T08:22:25.783Z,31.98
2018-07-04T08:23:25.893Z,31.91
2018-07-04T08:24:25.794Z,32.10
2018-07-04T08:25:25.768Z,32.39
2018-07-04T08:26:25.855Z,32.76
2018-07-04T08:27:25.754Z,32.90
2018-07-04T08:28:25.767Z,33.06
2018-07-04T08:29:25.751Z,33.50
2018-07-04T08:30:25.721Z,33.66
2018-07-04T08:31:25.709Z,33.59
2018-07-04T08:32:25.703Z,33.90
2018-07-04T08:33:25.761Z,33.89
2018-07-04T08:34:25.676Z,33.89
2018-07-04T08:35:25.672Z,33.78
2018-07-04T08:36:25.658Z,33.65
2018-07-04T08:37:25.662Z,33.79
2018-07-04T08:38:25.668Z,33.99
2018-07-04T08:39:25.629Z,33.60
2018-07-04T08:40:25.617Z,33.59
2018-07-04T08:41:25.605Z,33.71
2018-07-04T08:42:25.624Z,33.53
2018-07-04T08:43:25.611Z,33.38
2018-07-04T08:44:25.578Z,33.12
2018-07-04T08:45:25.572Z,33.45
2018-07-04T08:46:25.554Z,33.41
2018-07-04T08:47:25.563Z,33.29
2018-07-04T08:48:25.707Z,33.33
2018-07-04T08:49:25.531Z,33.38
2018-07-04T08:50:25.526Z,33.40
2018-07-04T08:51:25.623Z,33.24
2018-07-04T08:52:25.510Z,33.44
2018-07-04T08:53:25.549Z,33.62
2018-07-04T08:54:25.490Z,33.75
2018-07-04T08:55:25.480Z,33.34
2018-07-04T08:56:25.456Z,33.06
2018-07-04T08:57:25.469Z,32.72
2018-07-04T08:58:25.554Z,32.61
2018-07-04T08:59:25.427Z,32.61
2018-07-04T09:00:25.417Z,32.54
2018-07-04T09:01:25.416Z,32.39
2018-07-04T09:02:25.397Z,32.02
2018-07-04T09:03:25.414Z,31.92
2018-07-04T09:04:25.376Z,31.95
2018-07-04T09:05:25.380Z,31.82
2018-07-04T09:06:25.369Z,31.75
2018-07-04T09:07:25.372Z,31.85
2018-07-04T09:08:25.382Z,31.84
2018-07-04T09:09:25.330Z,31.69
2018-07-04T09:10:25.321Z,31.27
2018-07-04T09:11:25.328Z,31.12
2018-07-04T09:12:25.335Z,31.04
2018-07-04T09:13:25.318Z,30.90
2018-07-04T09:14:25.280Z,30.66
2018-07-04T09:15:25.274Z,30.51
2018-07-04T09:16:25.271Z,30.28
2018-07-04T09:17:25.264Z,29.95
2018-07-04T09:18:25.264Z,29.67
2018-07-04T09:19:25.245Z,29.41
2018-07-04T09:20:25.231Z,29.18
2018-07-04T09:21:25.209Z,29.10
2018-07-04T09:22:25.199Z,29.12
2018-07-04T09:23:25.350Z,28.88
2018-07-04T09:24:25.182Z,28.69
2018-07-04T09:25:25.166Z,28.62
2018-07-04T09:26:25.162Z,28.57
2018-07-04T09:27:25.155Z,28.45
2018-07-04T09:28:25.133Z,28.50
2018-07-04T09:29:25.137Z,28.38
2018-07-04T09:30:25.147Z,28.48
2018-07-04T09:31:25.114Z,28.45
2018-07-04T09:32:25.099Z,28.45
2018-07-04T09:33:25.069Z,28.43
2018-07-04T09:34:25.115Z,28.43
2018-07-04T09:35:25.069Z,28.51
2018-07-04T09:36:25.057Z,28.43
2018-07-04T09:37:25.046Z,28.62
2018-07-04T09:38:25.054Z,28.82
2018-07-04T09:39:25.045Z,29.07
2018-07-04T09:40:25.016Z,29.17
2018-07-04T09:41:25.005Z,29.35
2018-07-04T09:42:24.987Z,29.37
2018-07-04T09:43:24.993Z,29.57
2018-07-04T09:44:25.091Z,29.73
2018-07-04T09:45:24.958Z,29.88
2018-07-04T09:46:24.951Z,29.94
2018-07-04T09:47:24.964Z,30.10
2018-07-04T09:48:24.940Z,30.26
2018-07-04T09:49:24.942Z,30.36
2018-07-04T09:50:24.917Z,30.32
2018-07-04T09:51:24.898Z,30.48
2018-07-04T09:52:24.892Z,30.66
2018-07-04T09:53:24.896Z,30.97
2018-07-04T09:54:24.901Z,31.19
2018-07-04T09:55:24.856Z,31.13
2018-07-04T09:56:24.813Z,31.15
2018-07-04T09:57:24.839Z,30.96
2018-07-04T09:58:24.827Z,30.98
2018-07-04T09:59:24.849Z,31.22
2018-07-04T10:00:24.824Z,31.45
2018-07-04T10:01:24.798Z,31.30
2018-07-04T10:02:24.784Z,31.20
2018-07-04T10:03:24.774Z,31.23
2018-07-04T10:04:24.807Z,30.93
2018-07-04T10:05:24.760Z,30.54
2018-07-04T10:06:24.768Z,29.91
2018-07-04T10:07:24.760Z,29.79
2018-07-04T10:08:24.811Z,29.45
2018-07-04T10:09:24.782Z,29.26
2018-07-04T10:10:24.734Z,29.08
2018-07-04T10:11:24.704Z,28.98
2018-07-04T10:12:24.689Z,28.79
2018-07-04T10:13:24.673Z,28.60
2018-07-04T10:14:24.685Z,28.52
2018-07-04T10:15:24.648Z,28.72
2018-07-04T10:16:24.644Z,29.11
2018-07-04T10:17:24.626Z,29.39
2018-07-04T10:18:24.690Z,29.57
2018-07-04T10:19:24.638Z,29.86
2018-07-04T10:20:24.615Z,30.08
2018-07-04T10:21:24.559Z,30.08
2018-07-04T10:22:24.581Z,30.07
2018-07-04T10:23:24.571Z,29.99
2018-07-04T10:24:24.728Z,29.94
2018-07-04T10:25:24.552Z,30.07
2018-07-04T10:26:24.548Z,30.03
2018-07-04T10:27:24.543Z,29.84
2018-07-04T10:28:24.519Z,29.82
2018-07-04T10:29:24.548Z,29.81
2018-07-04T10:30:24.501Z,29.81
2018-07-04T10:31:24.541Z,29.81
2018-07-04T10:32:24.484Z,29.95
2018-07-04T10:33:24.470Z,29.84
2018-07-04T10:34:24.564Z,29.92
2018-07-04T10:35:24.454Z,29.69
2018-07-04T10:36:24.442Z,29.74
2018-07-04T10:37:24.404Z,29.49
2018-07-04T10:38:24.428Z,29.35
2018-07-04T10:39:24.391Z,29.26
2018-07-04T10:40:24.441Z,29.39
2018-07-04T10:41:24.397Z,29.35
2018-07-04T10:42:24.379Z,29.20
2018-07-04T10:43:24.379Z,29.23
2018-07-04T10:44:24.393Z,29.35
2018-07-04T10:45:24.352Z,29.27
2018-07-04T10:46:24.343Z,29.03
2018-07-04T10:47:24.326Z,28.77
2018-07-04T10:48:24.327Z,28.80
2018-07-04T10:49:24.315Z,29.00
2018-07-04T10:50:24.345Z,29.05
2018-07-04T10:51:24.297Z,29.14
2018-07-04T10:52:24.278Z,29.14
2018-07-04T10:53:24.267Z,29.17
2018-07-04T10:54:24.259Z,29.23
2018-07-04T10:55:24.270Z,29.25
2018-07-04T10:56:24.240Z,29.23
2018-07-04T10:57:24.223Z,29.26
2018-07-04T10:58:24.269Z,29.30
2018-07-04T10:59:24.216Z,29.41
2018-07-04T11:00:24.190Z,29.27
2018-07-04T11:01:24.192Z,29.25
2018-07-04T11:02:24.173Z,29.26
2018-07-04T11:03:24.166Z,29.11
2018-07-04T11:04:24.151Z,29.12
2018-07-04T11:05:24.168Z,29.14
2018-07-04T11:06:24.092Z,29.17
2018-07-04T11:07:24.121Z,29.27
2018-07-04T11:08:24.109Z,29.41
2018-07-04T11:09:24.103Z,29.33
2018-07-04T11:10:24.142Z,29.37
2018-07-04T11:11:24.135Z,29.55
2018-07-04T11:12:24.069Z,29.48
2018-07-04T11:13:24.067Z,29.36
2018-07-04T11:14:24.051Z,29.14
2018-07-04T11:15:24.070Z,29.07
2018-07-04T11:16:24.033Z,28.89
2018-07-04T11:17:23.980Z,28.87
2018-07-04T11:18:24.015Z,28.77
2018-07-04T11:19:24.005Z,28.92
2018-07-04T11:20:24.042Z,29.11
2018-07-04T11:21:23.998Z,29.14
2018-07-04T11:22:24.031Z,29.10
2018-07-04T11:23:23.990Z,29.07
2018-07-04T11:24:23.960Z,28.98
2018-07-04T11:25:23.965Z,29.08
2018-07-04T11:26:23.934Z,28.80
2018-07-04T11:27:23.929Z,28.70
2018-07-04T11:28:23.917Z,28.76
2018-07-04T11:29:23.901Z,28.82
2018-07-04T11:30:23.916Z,28.73
2018-07-04T11:31:23.909Z,28.52
2018-07-04T11:32:23.871Z,28.46
2018-07-04T11:33:23.821Z,28.36
2018-07-04T11:34:23.853Z,28.20
2018-07-04T11:35:23.855Z,28.14
2018-07-04T11:36:23.826Z,28.15
2018-07-04T11:37:23.814Z,28.27
2018-07-04T11:38:23.841Z,28.45
2018-07-04T11:39:23.804Z,28.36
2018-07-04T11:40:23.821Z,28.36
2018-07-04T11:41:23.882Z,28.11
2018-07-04T11:42:23.770Z,27.91
2018-07-04T11:43:23.757Z,27.81
2018-07-04T11:44:23.711Z,27.91
2018-07-04T11:45:23.774Z,28.02
2018-07-04T11:46:23.726Z,27.93
2018-07-04T11:47:23.709Z,27.86
2018-07-04T11:48:23.702Z,27.84
2018-07-04T11:49:23.652Z,27.81
2018-07-04T11:50:23.702Z,27.77
2018-07-04T11:51:23.674Z,27.76
2018-07-04T11:52:23.654Z,27.77
2018-07-04T11:53:23.650Z,27.86
2018-07-04T11:54:23.635Z,27.87
2018-07-04T11:55:23.650Z,28.03
2018-07-04T11:56:23.625Z,28.01
2018-07-04T11:57:23.567Z,28.01
2018-07-04T11:58:23.591Z,27.99
2018-07-04T11:59:23.582Z,28.01
2018-07-04T12:00:23.530Z,27.86
2018-07-04T12:01:23.599Z,27.65
2018-07-04T12:02:23.552Z,27.46
2018-07-04T12:03:23.544Z,27.24
2018-07-04T12:04:23.540Z,27.21
2018-07-04T12:05:23.540Z,27.05
2018-07-04T12:06:23.536Z,26.91
2018-07-04T12:07:23.512Z,26.98
2018-07-04T12:08:23.450Z,26.97
2018-07-04T12:09:23.481Z,26.91
2018-07-04T12:10:23.473Z,26.94
2018-07-04T12:11:23.507Z,26.81
2018-07-04T12:12:23.455Z,26.64
2018-07-04T12:13:23.398Z,26.72
2018-07-04T12:14:23.431Z,26.64
2018-07-04T12:15:23.376Z,26.60
2018-07-04T12:16:23.447Z,26.47
2018-07-04T12:17:23.392Z,26.59
2018-07-04T12:18:23.404Z,26.36
2018-07-04T12:19:23.376Z,26.32
2018-07-04T12:20:23.365Z,26.27
2018-07-04T12:21:23.382Z,26.19
2018-07-04T12:22:23.347Z,26.16
2018-07-04T12:23:23.331Z,26.00
2018-07-04T12:24:23.325Z,26.04
2018-07-04T12:25:23.314Z,26.09
2018-07-04T12:26:23.324Z,26.00
2018-07-04T12:27:23.293Z,26.06
2018-07-04T12:28:23.290Z,26.00
2018-07-04T12:29:23.273Z,26.00
2018-07-04T12:30:23.260Z,25.93
2018-07-04T12:31:23.283Z,25.90
2018-07-04T12:32:23.243Z,25.78
2018-07-04T12:33:23.242Z,25.75
2018-07-04T12:34:23.431Z,25.76
2018-07-04T12:35:23.411Z,25.76
2018-07-04T12:36:23.229Z,25.64
2018-07-04T12:37:23.372Z,25.60
2018-07-04T12:38:23.386Z,25.63
2018-07-04T12:39:23.287Z,25.63
2018-07-04T12:40:23.363Z,25.63
2018-07-04T12:41:23.368Z,25.56
2018-07-04T12:42:23.270Z,25.54
2018-07-04T12:43:23.129Z,25.42
2018-07-04T12:44:23.108Z,25.38
2018-07-04T12:45:23.112Z,25.36
2018-07-04T12:46:23.116Z,25.26
2018-07-04T12:47:23.165Z,25.22
2018-07-04T12:48:23.074Z,25.22
2018-07-04T12:49:23.085Z,25.17
2018-07-04T12:50:23.052Z,25.19
2018-07-04T12:51:23.062Z,25.11
2018-07-04T12:52:23.030Z,25.11